createdAt,value
2022-08-22T00:01:17.845Z,101251.97
2022-08-22T00:02:47.781Z,101282.56
2022-08-22T00:02:49.264Z,101321.66
2022-08-22T00:02:56.792Z,101323.69
2022-08-22T00:03:00.573Z,101300.22
2022-08-22T00:03:59.865Z,101250.25
2022-08-22T00:06:33.609Z,101254.72
2022-08-22T00:09:03.628Z,101257.31
2022-08-22T00:11:37.643Z,101261.75
2022-08-22T00:14:04.606Z,101255.63
2022-08-22T00:16:36.239Z,101253.00
2022-08-22T00:19:06.445Z,101260.94
2022-08-22T00:21:41.940Z,101253.06
2022-08-22T00:24:13.016Z,101248.66
2022-08-22T00:26:55.447Z,101260.06
2022-08-22T00:29:25.504Z,101260.94
2022-08-22T00:32:11.888Z,101261.94
2022-08-22T00:34:51.221Z,101262.69
2022-08-22T00:37:26.290Z,101261.03
2022-08-22T00:39:58.897Z,101256.44
2022-08-22T00:42:49.213Z,101261.84
2022-08-22T00:45:25.819Z,101251.41
2022-08-22T00:47:52.774Z,101251.41
2022-08-22T00:50:19.796Z,101246.81
2022-08-22T00:52:46.682Z,101241.59
2022-08-22T00:55:34.988Z,101235.53
2022-08-22T00:58:21.033Z,101243.41
2022-08-22T01:01:03.398Z,101232.09
2022-08-22T01:03:49.903Z,101232.97
2022-08-22T01:06:33.641Z,101233.94
2022-08-22T01:09:06.310Z,101227.84
2022-08-22T01:11:57.106Z,101221.50
2022-08-22T01:14:47.824Z,101227.78
2022-08-22T01:17:30.802Z,101232.13
2022-08-22T01:20:12.093Z,101228.50
2022-08-22T01:22:42.796Z,101236.69
2022-08-22T01:25:29.425Z,101219.91
2022-08-22T01:28:12.107Z,101233.34
2022-08-22T01:31:00.639Z,101232.47
2022-08-22T01:33:34.271Z,101238.66
2022-08-22T01:36:36.115Z,101231.47
2022-08-22T01:39:13.451Z,101223.41
2022-08-22T01:42:04.695Z,101223.31
2022-08-22T01:44:59.120Z,101221.63
2022-08-22T01:47:45.719Z,101221.69
2022-08-22T01:50:33.228Z,101222.44
2022-08-22T01:53:12.126Z,101221.50
2022-08-22T01:55:42.455Z,101218.31
2022-08-22T01:58:23.535Z,101223.31
2022-08-22T02:00:54.120Z,101220.66
2022-08-22T02:03:25.002Z,101217.91
2022-08-22T02:05:55.068Z,101219.69
2022-08-22T02:08:31.286Z,101216.97
2022-08-22T02:11:09.597Z,101214.38
2022-08-22T02:13:36.587Z,101209.88
2022-08-22T02:16:26.799Z,101209.38
2022-08-22T02:19:04.375Z,101205.56
2022-08-22T02:21:40.864Z,101215.28
2022-08-22T02:24:19.808Z,101215.31
2022-08-22T02:27:05.582Z,101211.94
2022-08-22T02:29:36.548Z,101212.69
2022-08-22T02:32:23.980Z,101205.03
2022-08-22T02:35:04.039Z,101204.94
2022-08-22T02:37:34.347Z,101209.44
2022-08-22T02:40:22.623Z,101213.09
2022-08-22T02:42:49.618Z,101203.53
2022-08-22T02:45:22.746Z,101196.25
2022-08-22T02:48:05.369Z,101204.13
2022-08-22T02:50:42.565Z,101206.00
2022-08-22T02:53:16.082Z,101211.03
2022-08-22T02:55:42.985Z,101207.59
2022-08-22T02:58:19.045Z,101213.75
2022-08-22T03:01:09.592Z,101203.16
2022-08-22T03:03:39.363Z,101197.25
2022-08-22T03:06:26.451Z,101191.75
2022-08-22T03:09:07.378Z,101190.03
2022-08-22T03:11:38.725Z,101191.66
2022-08-22T03:14:14.810Z,101187.22
2022-08-22T03:16:50.840Z,101188.13
2022-08-22T03:19:20.827Z,101193.34
2022-08-22T03:22:08.005Z,101193.44
2022-08-22T03:24:43.253Z,101183.66
2022-08-22T03:27:32.677Z,101179.34
2022-08-22T03:30:20.553Z,101171.44
2022-08-22T03:32:50.618Z,101166.94
2022-08-22T03:35:23.509Z,101167.19
2022-08-22T03:37:54.345Z,101160.81
2022-08-22T03:40:32.704Z,101168.75
2022-08-22T03:43:18.383Z,101167.00
2022-08-22T03:45:45.313Z,101166.13
2022-08-22T03:48:29.283Z,101178.56
2022-08-22T03:51:05.610Z,101175.84
2022-08-22T03:53:51.470Z,101170.69
2022-08-22T03:56:21.650Z,101172.63
2022-08-22T03:58:54.708Z,101173.38
2022-08-22T04:01:42.954Z,101177.81
2022-08-22T04:04:43.387Z,101178.72
2022-08-22T04:07:28.018Z,101169.03
2022-08-22T04:10:11.676Z,101170.06
2022-08-22T04:12:44.623Z,101165.53
2022-08-22T04:15:26.795Z,101162.97
2022-08-22T04:18:09.158Z,101172.78
2022-08-22T04:20:48.998Z,101171.69
2022-08-22T04:23:35.089Z,101176.13
2022-08-22T04:26:20.799Z,101174.34
2022-08-22T04:28:59.296Z,101173.50
2022-08-22T04:31:30.031Z,101173.47
2022-08-22T04:34:03.325Z,101181.50
2022-08-22T04:36:33.448Z,101180.69
2022-08-22T04:39:03.093Z,101181.59
2022-08-22T04:41:33.094Z,101172.78
2022-08-22T04:44:06.214Z,101176.25
2022-08-22T04:46:45.725Z,101179.81
2022-08-22T04:49:17.590Z,101185.19
2022-08-22T04:51:51.991Z,101177.25
2022-08-22T04:54:31.010Z,101179.97
2022-08-22T04:57:16.342Z,101188.69
2022-08-22T04:59:43.444Z,101179.81
2022-08-22T05:02:11.918Z,101185.19
2022-08-22T05:04:38.960Z,101181.66
2022-08-22T05:07:09.322Z,101186.03
2022-08-22T05:09:38.324Z,101189.66
2022-08-22T05:12:12.135Z,101184.19
2022-08-22T05:14:44.624Z,101191.22
2022-08-22T05:17:15.614Z,101182.34
2022-08-22T05:19:48.020Z,101188.63
2022-08-22T05:22:19.416Z,101197.69
2022-08-22T05:24:48.743Z,101187.25
2022-08-22T05:27:15.580Z,101191.31
2022-08-22T05:29:44.492Z,101198.56
2022-08-22T05:32:32.459Z,101200.53
2022-08-22T05:35:01.385Z,101207.44
2022-08-22T05:37:34.197Z,101202.72
2022-08-22T05:40:01.519Z,101198.94
2022-08-22T05:42:32.009Z,101213.88
2022-08-22T05:45:02.060Z,101224.50
2022-08-22T05:47:32.020Z,101226.63
2022-08-22T05:50:17.410Z,101230.09
2022-08-22T05:52:47.029Z,101232.38
2022-08-22T05:55:44.149Z,101224.13
2022-08-22T05:58:11.423Z,101230.13
2022-08-22T06:00:41.096Z,101227.00
2022-08-22T06:03:23.336Z,101232.31
2022-08-22T06:05:52.384Z,101234.13
2022-08-22T06:08:27.936Z,101231.78
2022-08-22T06:10:56.454Z,101226.44
2022-08-22T06:13:35.278Z,101220.66
2022-08-22T06:16:05.965Z,101223.25
2022-08-22T06:18:34.095Z,101223.84
2022-08-22T06:21:04.998Z,101216.53
2022-08-22T06:23:37.131Z,101219.91
2022-08-22T06:26:05.687Z,101212.19
2022-08-22T06:28:54.492Z,101217.38
2022-08-22T06:31:34.182Z,101222.34
2022-08-22T06:34:01.027Z,101224.88
2022-08-22T06:36:30.848Z,101224.72
2022-08-22T06:38:58.803Z,101224.72
2022-08-22T06:41:27.322Z,101224.44
2022-08-22T06:43:55.655Z,101233.09
2022-08-22T06:46:25.825Z,101241.78
2022-08-22T06:48:54.841Z,101242.44
2022-08-22T06:51:22.463Z,101242.38
2022-08-22T06:53:54.050Z,101249.44
2022-08-22T06:56:25.687Z,101239.56
2022-08-22T06:58:57.672Z,101243.88
2022-08-22T07:01:26.939Z,101235.69
2022-08-22T07:03:55.722Z,101246.06
2022-08-22T07:06:31.221Z,101250.53
2022-08-22T07:08:59.078Z,101244.19
2022-08-22T07:11:28.217Z,101244.91
2022-08-22T07:13:58.850Z,101241.47
2022-08-22T07:16:32.265Z,101249.78
2022-08-22T07:19:09.162Z,101252.25
2022-08-22T07:21:53.579Z,101252.84
2022-08-22T07:24:25.051Z,101255.28
2022-08-22T07:26:57.975Z,101259.41
2022-08-22T07:29:41.171Z,101247.91
2022-08-22T07:32:11.429Z,101257.63
2022-08-22T07:34:47.508Z,101248.41
2022-08-22T07:37:34.485Z,101257.19
2022-08-22T07:40:08.294Z,101251.91
2022-08-22T07:42:41.374Z,101248.16
2022-08-22T07:45:08.401Z,101252.22
2022-08-22T07:48:01.882Z,101250.38
2022-08-22T07:50:34.681Z,101244.09
2022-08-22T07:53:09.709Z,101248.63
2022-08-22T07:55:42.247Z,101247.28
2022-08-22T07:58:17.333Z,101247.56
2022-08-22T08:00:46.227Z,101248.09
2022-08-22T08:03:13.257Z,101251.63
2022-08-22T08:05:44.483Z,101254.38
2022-08-22T08:08:20.191Z,101258.84
2022-08-22T08:10:48.466Z,101254.84
2022-08-22T08:13:20.613Z,101261.09
2022-08-22T08:15:50.216Z,101264.56
2022-08-22T08:18:21.980Z,101264.19
2022-08-22T08:21:04.000Z,101254.22
2022-08-22T08:23:40.157Z,101263.41
2022-08-22T08:26:09.302Z,101264.72
2022-08-22T08:28:46.543Z,101273.28
2022-08-22T08:31:16.609Z,101268.44
2022-08-22T08:33:45.323Z,101266.34
2022-08-22T08:36:36.355Z,101268.53
2022-08-22T08:39:03.872Z,101270.25
2022-08-22T08:41:40.155Z,101267.16
2022-08-22T08:44:32.534Z,101268.63
2022-08-22T08:47:18.464Z,101267.81
2022-08-22T08:49:45.333Z,101272.28
2022-08-22T08:52:26.024Z,101272.41
2022-08-22T08:55:21.773Z,101265.34
2022-08-22T08:58:11.747Z,101264.13
2022-08-22T09:00:45.851Z,101269.47
2022-08-22T09:03:40.247Z,101261.13
2022-08-22T09:06:22.933Z,101257.16
2022-08-22T09:08:59.529Z,101250.22
2022-08-22T09:11:46.681Z,101254.84
2022-08-22T09:14:32.392Z,101265.28
2022-08-22T09:17:07.821Z,101268.63
2022-08-22T09:19:34.772Z,101272.00
2022-08-22T09:22:23.319Z,101273.09
2022-08-22T09:24:52.574Z,101273.66
2022-08-22T09:27:44.199Z,101274.31
2022-08-22T09:30:13.156Z,101275.91
2022-08-22T09:32:50.436Z,101274.78
2022-08-22T09:35:20.606Z,101274.28
2022-08-22T09:37:58.951Z,101277.22
2022-08-22T09:40:43.563Z,101286.38
2022-08-22T09:43:25.559Z,101276.34
2022-08-22T09:46:09.402Z,101278.53
2022-08-22T09:48:53.100Z,101274.75
2022-08-22T09:51:31.591Z,101274.44
2022-08-22T09:54:11.763Z,101264.75
2022-08-22T09:56:46.809Z,101262.34
2022-08-22T09:59:29.032Z,101268.41
2022-08-22T10:02:25.302Z,101272.09
2022-08-22T10:05:40.421Z,101258.31
2022-08-22T10:08:13.194Z,101259.84
2022-08-22T10:10:46.830Z,101252.59
2022-08-22T10:13:32.120Z,101253.59
2022-08-22T10:16:19.962Z,101250.56
2022-08-22T10:18:54.760Z,101257.41
2022-08-22T10:21:24.172Z,101259.00
2022-08-22T10:23:51.123Z,101255.13
2022-08-22T10:26:41.549Z,101259.91
2022-08-22T10:29:27.027Z,101260.84
2022-08-22T10:32:01.341Z,101258.63
2022-08-22T10:34:45.899Z,101254.16
2022-08-22T10:37:39.830Z,101256.16
2022-08-22T10:40:18.406Z,101257.97
2022-08-22T10:43:06.369Z,101250.59
2022-08-22T10:45:39.147Z,101250.28
2022-08-22T10:48:08.861Z,101247.28
2022-08-22T10:50:44.378Z,101252.72
2022-08-22T10:53:34.732Z,101247.66
2022-08-22T10:56:05.485Z,101249.00
2022-08-22T10:58:37.015Z,101254.81
2022-08-22T11:01:37.173Z,101258.44
2022-08-22T11:04:12.184Z,101256.94
2022-08-22T11:06:56.475Z,101257.88
2022-08-22T11:09:28.093Z,101258.44
2022-08-22T11:12:14.564Z,101257.75
2022-08-22T11:15:03.436Z,101256.91
2022-08-22T11:17:54.124Z,101247.41
2022-08-22T11:20:24.340Z,101249.44
2022-08-22T11:22:55.668Z,101244.69
2022-08-22T11:25:38.622Z,101254.63
2022-08-22T11:28:23.581Z,101248.44
2022-08-22T11:31:00.981Z,101245.91
2022-08-22T11:33:46.631Z,101247.47
2022-08-22T11:36:31.212Z,101232.78
2022-08-22T11:39:18.166Z,101232.06
2022-08-22T11:41:54.259Z,101233.69
2022-08-22T11:44:27.836Z,101221.44
2022-08-22T11:46:58.131Z,101218.28
2022-08-22T11:49:46.149Z,101230.78
2022-08-22T11:52:24.608Z,101226.22
2022-08-22T11:54:55.491Z,101217.53
2022-08-22T11:57:28.988Z,101216.53
2022-08-22T12:00:02.854Z,101217.41
2022-08-22T12:02:50.214Z,101219.53
2022-08-22T12:05:27.841Z,101209.75
2022-08-22T12:08:11.245Z,101207.66
2022-08-22T12:10:44.983Z,101209.63
2022-08-22T12:13:37.646Z,101212.81
2022-08-22T12:16:17.817Z,101214.13
2022-08-22T12:18:53.029Z,101207.31
2022-08-22T12:21:29.168Z,101218.88
2022-08-22T12:24:11.273Z,101219.97
2022-08-22T12:27:08.223Z,101203.84
2022-08-22T12:29:44.679Z,101214.38
2022-08-22T12:32:32.510Z,101209.50
2022-08-22T12:35:13.831Z,101198.81
2022-08-22T12:38:26.610Z,101205.53
2022-08-22T12:41:02.953Z,101201.16
2022-08-22T12:43:50.111Z,101199.25
2022-08-22T12:46:23.259Z,101192.44
2022-08-22T12:49:07.766Z,101195.59
2022-08-22T12:51:40.921Z,101198.75
2022-08-22T12:54:17.153Z,101192.25
2022-08-22T12:56:51.075Z,101187.16
2022-08-22T12:59:26.687Z,101184.50
2022-08-22T13:01:55.428Z,101188.94
2022-08-22T13:04:33.053Z,101184.75
2022-08-22T13:07:22.564Z,101182.50
2022-08-22T13:09:54.907Z,101188.16
2022-08-22T13:12:35.429Z,101181.13
2022-08-22T13:15:25.561Z,101195.63
2022-08-22T13:17:53.694Z,101185.78
2022-08-22T13:20:35.495Z,101181.47
2022-08-22T13:23:12.498Z,101186.69
2022-08-22T13:26:07.489Z,101181.34
2022-08-22T13:28:40.821Z,101170.94
2022-08-22T13:31:11.520Z,101171.50
2022-08-22T13:33:47.250Z,101176.56
2022-08-22T13:36:16.106Z,101165.59
2022-08-22T13:39:12.953Z,101149.34
2022-08-22T13:41:50.390Z,101179.44
2022-08-22T13:44:28.416Z,101168.94
2022-08-22T13:47:13.927Z,101160.38
2022-08-22T13:49:45.485Z,101173.50
2022-08-22T13:52:31.607Z,101165.56
2022-08-22T13:55:01.845Z,101172.00
2022-08-22T13:57:41.194Z,101160.13
2022-08-22T14:00:31.598Z,101169.63
2022-08-22T14:03:16.041Z,101175.47
2022-08-22T14:05:44.888Z,101166.75
2022-08-22T14:08:33.088Z,101162.47
2022-08-22T14:11:20.911Z,101155.38
2022-08-22T14:14:05.534Z,101165.56
2022-08-22T14:16:42.025Z,101162.09
2022-08-22T14:19:11.795Z,101177.03
2022-08-22T14:21:45.731Z,101166.47
2022-08-22T14:24:33.414Z,101154.19
2022-08-22T14:27:19.506Z,101146.81
2022-08-22T14:29:56.724Z,101152.09
2022-08-22T14:32:30.900Z,101147.94
2022-08-22T14:35:23.522Z,101141.44
2022-08-22T14:38:17.346Z,101154.84
2022-08-22T14:40:52.823Z,101146.00
2022-08-22T14:43:22.534Z,101154.06
2022-08-22T14:46:02.461Z,101154.41
2022-08-22T14:49:04.052Z,101141.22
2022-08-22T14:51:31.202Z,101146.56
2022-08-22T14:54:21.365Z,101148.25
2022-08-22T14:56:50.175Z,101141.59
2022-08-22T14:59:37.534Z,101135.63
2022-08-22T15:02:13.342Z,101141.41
2022-08-22T15:04:43.309Z,101136.75
2022-08-22T15:07:15.272Z,101130.56
2022-08-22T15:09:49.632Z,101132.31
2022-08-22T15:12:22.241Z,101131.94
2022-08-22T15:14:55.544Z,101135.94
2022-08-22T15:17:44.929Z,101142.56
2022-08-22T15:20:22.661Z,101140.25
2022-08-22T15:22:57.727Z,101149.59
2022-08-22T15:25:28.770Z,101145.50
2022-08-22T15:28:05.869Z,101150.72
2022-08-22T15:30:44.861Z,101148.94
2022-08-22T15:33:16.491Z,101141.78
2022-08-22T15:35:58.892Z,101139.16
2022-08-22T15:38:32.507Z,101141.00
2022-08-22T15:41:31.532Z,101143.00
2022-08-22T15:44:30.998Z,101143.75
2022-08-22T15:47:27.785Z,101138.00
2022-08-22T15:50:08.721Z,101141.13
2022-08-22T15:52:59.093Z,101143.31
2022-08-22T15:55:37.192Z,101134.00
2022-08-22T15:58:13.021Z,101131.75
2022-08-22T16:01:05.969Z,101127.44
2022-08-22T16:04:08.769Z,101138.28
2022-08-22T16:07:09.473Z,101135.22
2022-08-22T16:09:44.652Z,101144.19
2022-08-22T16:12:32.077Z,101141.84
2022-08-22T16:14:59.960Z,101142.19
2022-08-22T16:17:26.904Z,101148.88
2022-08-22T16:20:12.080Z,101140.75
2022-08-22T16:22:59.103Z,101141.97
2022-08-22T16:25:54.400Z,101137.47
2022-08-22T16:29:01.765Z,101144.34
2022-08-22T16:31:48.474Z,101130.66
2022-08-22T16:34:21.182Z,101132.94
2022-08-22T16:37:03.590Z,101135.91
2022-08-22T16:39:56.641Z,101133.44
2022-08-22T16:42:28.393Z,101143.06
2022-08-22T16:44:57.051Z,101144.78
2022-08-22T16:47:42.349Z,101141.16
2022-08-22T16:50:31.220Z,101138.72
2022-08-22T16:53:09.565Z,101131.22
2022-08-22T16:55:51.533Z,101135.75
2022-08-22T16:58:57.080Z,101142.41
2022-08-22T17:01:40.763Z,101145.97
2022-08-22T17:04:31.740Z,101144.34
2022-08-22T17:07:33.888Z,101139.66
2022-08-22T17:10:24.286Z,101132.50
2022-08-22T17:13:14.579Z,101132.59
2022-08-22T17:16:02.423Z,101126.28
2022-08-22T17:18:54.110Z,101126.03
2022-08-22T17:21:41.666Z,101128.13
2022-08-22T17:24:32.261Z,101125.84
2022-08-22T17:27:07.515Z,101130.31
2022-08-22T17:29:39.514Z,101126.09
2022-08-22T17:32:18.755Z,101134.63
2022-08-22T17:35:17.958Z,101136.34
2022-08-22T17:38:04.046Z,101137.50
2022-08-22T17:40:35.750Z,101134.09
2022-08-22T17:43:14.935Z,101136.84
2022-08-22T17:45:53.702Z,101141.97
2022-08-22T17:48:33.953Z,101134.66
2022-08-22T17:51:26.494Z,101143.97
2022-08-22T17:54:04.057Z,101134.38
2022-08-22T17:57:05.954Z,101134.78
2022-08-22T18:00:04.559Z,101136.09
2022-08-22T18:02:44.258Z,101134.66
2022-08-22T18:05:25.177Z,101138.22
2022-08-22T18:08:01.972Z,101147.31
2022-08-22T18:10:52.168Z,101145.41
2022-08-22T18:13:37.742Z,101147.38
2022-08-22T18:16:10.930Z,101146.66
2022-08-22T18:18:51.651Z,101148.59
2022-08-22T18:21:29.783Z,101149.13
2022-08-22T18:24:01.381Z,101154.97
2022-08-22T18:26:47.093Z,101150.81
2022-08-22T18:29:15.217Z,101161.19
2022-08-22T18:31:47.811Z,101168.25
2022-08-22T18:34:40.839Z,101172.22
2022-08-22T18:37:21.007Z,101166.22
2022-08-22T18:40:02.597Z,101173.28
2022-08-22T18:42:37.355Z,101174.34
2022-08-22T18:45:19.820Z,101177.53
2022-08-22T18:47:56.061Z,101174.06
2022-08-22T18:50:37.353Z,101178.72
2022-08-22T18:53:30.899Z,101174.47
2022-08-22T18:56:02.193Z,101174.69
2022-08-22T18:59:05.510Z,101180.03
2022-08-22T19:01:58.097Z,101184.94
2022-08-22T19:04:35.710Z,101192.69
2022-08-22T19:07:08.323Z,101184.63
2022-08-22T19:10:10.943Z,101187.75
2022-08-22T19:13:07.488Z,101190.19
2022-08-22T19:15:49.586Z,101178.28
2022-08-22T19:18:37.803Z,101179.13
2022-08-22T19:24:22.026Z,101194.88
2022-08-22T19:27:20.947Z,101190.03
2022-08-22T19:30:04.438Z,101198.22
2022-08-22T19:32:56.642Z,101197.44
2022-08-22T19:35:41.038Z,101204.25
2022-08-22T19:38:09.492Z,101203.59
2022-08-22T19:40:58.463Z,101210.13
2022-08-22T19:43:37.761Z,101203.81
2022-08-22T19:46:31.260Z,101213.31
2022-08-22T19:49:07.478Z,101212.44
2022-08-22T19:51:48.979Z,101215.06
2022-08-22T19:54:22.139Z,101217.41
2022-08-22T19:57:16.067Z,101225.59
2022-08-22T20:00:07.372Z,101218.34
2022-08-22T20:02:56.940Z,101232.94
2022-08-22T20:05:42.744Z,101217.47
2022-08-22T20:08:31.699Z,101215.41
2022-08-22T20:11:04.980Z,101220.97
2022-08-22T20:13:33.988Z,101217.88
2022-08-22T20:16:01.166Z,101222.19
2022-08-22T20:19:01.885Z,101225.47
2022-08-22T20:21:45.289Z,101229.88
2022-08-22T20:24:24.570Z,101223.47
2022-08-22T20:27:13.479Z,101227.28
2022-08-22T20:29:58.888Z,101235.19
2022-08-22T20:32:39.483Z,101232.59
2022-08-22T20:35:09.048Z,101229.84
2022-08-22T20:38:05.386Z,101232.50
2022-08-22T20:40:54.662Z,101227.13
2022-08-22T20:43:37.177Z,101219.13
2022-08-22T20:46:16.976Z,101226.13
2022-08-22T20:48:50.018Z,101221.75
2022-08-22T20:51:25.019Z,101222.69
2022-08-22T20:53:55.773Z,101219.63
2022-08-22T20:56:58.730Z,101218.50
2022-08-22T20:59:32.399Z,101222.09
2022-08-22T21:03:59.113Z,101221.66
2022-08-22T21:06:32.808Z,101214.22
2022-08-22T21:09:36.304Z,101219.44
2022-08-22T21:12:04.670Z,101221.16
2022-08-22T21:14:44.697Z,101221.66
2022-08-22T21:19:20.424Z,101230.69
2022-08-22T21:21:47.865Z,101228.72
2022-08-22T21:24:22.322Z,101227.56
2022-08-22T21:27:06.648Z,101228.50
2022-08-22T21:29:52.583Z,101233.38
2022-08-22T21:32:39.298Z,101239.06
2022-08-22T21:35:33.519Z,101228.41
2022-08-22T21:38:02.321Z,101228.91
2022-08-22T21:40:38.123Z,101229.69
2022-08-22T21:43:40.100Z,101226.25
2022-08-22T21:46:31.713Z,101226.31
2022-08-22T21:49:07.379Z,101229.78
2022-08-22T21:51:51.373Z,101223.66
2022-08-22T21:54:25.306Z,101226.31
2022-08-22T21:57:16.813Z,101224.47
2022-08-22T22:00:00.220Z,101227.97
2022-08-22T22:02:41.423Z,101224.91
2022-08-22T22:05:18.800Z,101222.78
2022-08-22T22:07:50.261Z,101227.19
2022-08-22T22:10:23.138Z,101228.28
2022-08-22T22:12:54.556Z,101221.31
2022-08-22T22:15:24.517Z,101222.16
2022-08-22T22:17:55.806Z,101222.69
2022-08-22T22:20:28.034Z,101228.72
2022-08-22T22:23:00.225Z,101224.56
2022-08-22T22:25:39.652Z,101234.06
2022-08-22T22:28:26.867Z,101222.63
2022-08-22T22:31:03.788Z,101233.19
2022-08-22T22:33:47.340Z,101235.84
2022-08-22T22:36:30.038Z,101230.53
2022-08-22T22:39:01.179Z,101237.69
2022-08-22T22:41:34.326Z,101242.16
2022-08-22T22:44:13.365Z,101236.75
2022-08-22T22:46:40.723Z,101233.13
2022-08-22T22:49:10.938Z,101242.91
2022-08-22T22:51:39.056Z,101244.59
2022-08-22T22:54:18.150Z,101241.94
2022-08-22T22:56:58.570Z,101240.13
2022-08-22T22:59:37.158Z,101240.25
2022-08-22T23:02:37.554Z,101245.69
2022-08-22T23:05:24.033Z,101246.53
2022-08-22T23:07:57.444Z,101252.75
2022-08-22T23:10:34.751Z,101253.63
2022-08-22T23:13:05.735Z,101248.53
2022-08-22T23:15:37.545Z,101250.53
2022-08-22T23:18:09.251Z,101249.59
2022-08-22T23:20:46.153Z,101254.06
2022-08-22T23:23:25.472Z,101250.53
2022-08-22T23:26:10.579Z,101253.41
2022-08-22T23:28:51.602Z,101258.63
2022-08-22T23:31:43.664Z,101256.06
2022-08-22T23:34:15.580Z,101259.75
2022-08-22T23:36:51.294Z,101255.22
2022-08-22T23:39:27.595Z,101253.25
2022-08-22T23:42:07.391Z,101255.28
2022-08-22T23:44:38.221Z,101256.22
2022-08-22T23:49:55.963Z,101258.84
2022-08-22T23:52:27.111Z,101257.13
2022-08-22T23:55:02.212Z,101255.44
2022-08-22T23:57:43.365Z,101249.31
